Time;durP1;ratioP1;P1;durP2;ratioP2;P2;SDS_P1;SDS_P2;PMS_P1;PMS_P2;Temp;Humidity;BMP_temperature;BMP_pressure;BME280_temperature;BME280_humidity;BME280_pressure;Samples;Min_cycle;Max_cycle;Signal;HPM_P1;HPM_P2
2023/03/26 00:00:43;;;;;;;1.80;1.30;;;;;;;7.74;69.99;97093.02;109069;1254;60321;-80
2023/03/26 00:03:29;;;;;;;12.20;2.90;;;;;;;7.68;70.19;97095.50;109036;1254;60202;-77
2023/03/26 00:06:12;;;;;;;7.10;3.30;;;;;;;7.63;70.56;97100.36;109087;1254;61468;-80
2023/03/26 00:08:40;;;;;;;8.30;3.30;;;;;;;7.59;70.49;97097.79;108977;1254;69705;-80
2023/03/26 00:11:08;;;;;;;6.00;2.80;;;;;;;7.57;70.93;97098.50;109036;1254;72559;-78
2023/03/26 00:13:34;;;;;;;3.20;1.90;;;;;;;7.57;71.02;97096.73;109067;1254;60126;-80
2023/03/26 00:16:01;;;;;;;5.20;1.90;;;;;;;7.58;70.97;97096.07;109084;1254;60220;-77
2023/03/26 00:18:30;;;;;;;3.00;1.70;;;;;;;7.58;71.09;97098.71;109007;1256;75351;-78
2023/03/26 00:20:57;;;;;;;5.00;2.30;;;;;;;7.59;71.37;97098.64;108975;1256;70640;-80
2023/03/26 00:23:24;;;;;;;3.30;1.60;;;;;;;7.62;71.61;97097.14;109061;1256;73056;-78
2023/03/26 00:25:50;;;;;;;4.50;1.80;;;;;;;7.65;71.59;97092.08;109087;1256;59937;-79
2023/03/26 00:28:20;;;;;;;5.30;2.10;;;;;;;7.71;71.38;97091.17;109054;1255;60029;-78
2023/03/26 00:30:47;;;;;;;2.20;1.70;;;;;;;7.74;71.65;97088.98;108890;1255;75113;-80
2023/03/26 00:33:16;;;;;;;4.60;1.70;;;;;;;7.77;71.62;97091.13;108911;1256;71385;-78
2023/03/26 00:35:45;;;;;;;3.30;1.90;;;;;;;7.78;71.90;97089.27;109083;1255;72792;-78
2023/03/26 00:38:13;;;;;;;7.70;3.20;;;;;;;7.80;71.82;97088.17;108961;1255;59770;-77
2023/03/26 00:40:42;;;;;;;7.00;3.10;;;;;;;7.82;72.32;97083.62;109151;1255;60264;-80
2023/03/26 00:43:17;;;;;;;6.70;3.20;;;;;;;7.84;72.52;97088.51;109137;1255;74531;-80
2023/03/26 00:45:51;;;;;;;6.20;2.40;;;;;;;7.83;73.32;97080.59;109125;1256;70217;-78
2023/03/26 00:48:18;;;;;;;4.50;2.10;;;;;;;7.81;73.98;97079.32;109117;1256;73005;-78
2023/03/26 00:50:45;;;;;;;4.10;2.00;;;;;;;7.78;75.07;97083.77;108928;1255;60487;-80
2023/03/26 00:53:12;;;;;;;5.10;1.90;;;;;;;7.72;75.39;97087.81;108927;1255;60320;-80
2023/03/26 00:55:40;;;;;;;3.30;1.90;;;;;;;7.68;75.77;97087.69;108898;1255;74904;-80
2023/03/26 00:58:09;;;;;;;4.60;2.00;;;;;;;7.64;75.69;97089.66;108843;1256;71385;-78
2023/03/26 01:00:36;;;;;;;;;;;;;;;7.61;76.01;97086.89;109041;1254;71678;-78
2023/03/26 01:03:03;;;;;;;4.70;2.70;;;;;;;7.57;76.04;97079.95;109065;1254;60052;-79
2023/03/26 01:05:32;;;;;;;6.00;3.00;;;;;;;7.57;75.86;97075.05;109064;1254;59958;-77
2023/03/26 01:08:01;;;;;;;6.30;2.90;;;;;;;7.56;76.47;97070.48;109110;1254;75307;-78
2023/03/26 01:10:28;;;;;;;;;;;;;;;7.55;76.47;97069.25;109324;1254;70254;-78
2023/03/26 01:12:55;;;;;;;6.50;4.30;;;;;;;7.51;77.03;97067.98;109273;1254;72555;-78
2023/03/26 01:15:21;;;;;;;7.30;4.40;;;;;;;7.50;76.72;97062.33;109273;1254;60001;-78
2023/03/26 01:17:50;;;;;;;6.00;3.50;;;;;;;7.49;76.94;97061.20;109277;1254;59709;-80
2023/03/26 01:20:25;;;;;;;3.90;2.10;;;;;;;7.49;76.99;97061.75;109018;1257;74239;-80
2023/03/26 01:22:55;;;;;;;5.40;1.70;;;;;;;7.51;77.18;97061.23;108982;1256;70942;-80
2023/03/26 01:25:21;;;;;;;3.40;1.80;;;;;;;7.51;77.89;97053.09;109199;1257;73782;-78
2023/03/26 01:27:48;;;;;;;3.70;1.50;;;;;;;7.50;77.97;97055.48;109191;1257;59838;-80
2023/03/26 01:30:48;;;;;;;4.40;2.30;;;;;;;7.50;77.78;97048.86;109203;1256;59915;-78
2023/03/26 01:33:35;;;;;;;9.00;3.00;;;;;;;7.50;77.62;97048.27;108882;1255;75311;-80
2023/03/26 01:36:16;;;;;;;5.30;2.70;;;;;;;7.50;77.86;97044.75;109206;1257;70930;-78
2023/03/26 01:38:52;;;;;;;5.60;2.40;;;;;;;7.50;77.80;97038.84;109039;1255;71561;-78
2023/03/26 01:41:40;;;;;;;3.40;2.10;;;;;;;7.49;77.60;97041.05;109003;1255;59541;-78
2023/03/26 01:44:15;;;;;;;4.70;2.40;;;;;;;7.50;77.90;97036.13;109084;1256;60276;-80
2023/03/26 01:46:41;;;;;;;5.80;2.70;;;;;;;7.47;78.17;97036.81;108991;1257;76473;-79
2023/03/26 01:49:14;;;;;;;7.90;4.00;;;;;;;7.44;78.24;97030.31;108874;1255;139318;-80
2023/03/26 01:51:41;;;;;;;4.10;2.30;;;;;;;7.42;78.05;97026.83;108950;1255;71951;-78
2023/03/26 01:54:10;;;;;;;5.30;2.70;;;;;;;7.40;77.96;97026.35;108802;1255;59949;-80
2023/03/26 01:57:18;;;;;;;5.10;2.70;;;;;;;7.39;78.22;97025.41;109170;1254;60299;-80
2023/03/26 01:59:57;;;;;;;6.90;3.60;;;;;;;7.33;78.17;97025.27;109254;1254;75451;-80
2023/03/26 02:02:34;;;;;;;4.90;2.70;;;;;;;7.30;78.45;97024.39;109309;1254;70742;-80
2023/03/26 02:05:10;;;;;;;2.00;1.20;;;;;;;7.29;78.46;97022.59;109118;1256;71124;-78
2023/03/26 02:07:44;;;;;;;3.50;2.10;;;;;;;7.32;78.26;97032.45;109067;1257;59758;-79
2023/03/26 02:10:23;;;;;;;4.70;2.20;;;;;;;7.32;78.22;97037.10;108894;1257;59943;-80
2023/03/26 02:12:49;;;;;;;5.20;2.10;;;;;;;7.32;78.46;97036.02;109294;1254;76535;-78
2023/03/26 02:15:16;;;;;;;4.90;2.00;;;;;;;7.32;78.39;97034.34;109096;1254;70168;-78
2023/03/26 02:17:42;;;;;;;4.20;1.90;;;;;;;7.32;78.42;97030.52;109269;1254;73253;-80
2023/03/26 02:20:10;;;;;;;2.90;1.70;;;;;;;7.31;78.12;97029.02;109102;1256;59768;-80
2023/03/26 02:22:39;;;;;;;5.10;2.00;;;;;;;7.30;78.03;97029.46;109073;1256;59926;-80
2023/03/26 02:25:07;;;;;;;;;;;;;;;7.29;77.84;97034.98;109078;1255;75179;-79
2023/03/26 02:27:34;;;;;;;5.20;2.20;;;;;;;7.24;78.13;97033.49;109145;1255;70926;-78
2023/03/26 02:30:02;;;;;;;5.50;2.30;;;;;;;7.22;77.94;97026.08;109114;1256;72028;-80
2023/03/26 02:32:29;;;;;;;11.90;5.40;;;;;;;7.22;78.12;97023.76;109061;1256;59708;-80
2023/03/26 02:34:56;;;;;;;4.20;2.40;;;;;;;7.22;78.20;97025.06;109124;1256;59738;-78
2023/03/26 02:37:22;;;;;;;3.50;2.10;;;;;;;7.23;78.14;97025.26;109166;1255;75557;-78
2023/03/26 02:39:48;;;;;;;5.10;2.40;;;;;;;7.24;78.07;97029.13;109112;1256;60556;-78
2023/03/26 02:42:15;;;;;;;6.80;2.20;;;;;;;7.27;78.01;97029.02;108904;1256;60259;-80
2023/03/26 02:44:41;;;;;;;5.80;2.80;;;;;;;7.27;77.89;97036.56;108885;1256;60569;-80
2023/03/26 02:47:08;;;;;;;3.50;1.80;;;;;;;7.27;77.91;97042.11;108925;1255;60651;-78
2023/03/26 02:49:34;;;;;;;2.30;1.60;;;;;;;7.27;78.17;97049.19;108923;1255;60251;-78
2023/03/26 02:52:05;;;;;;;3.80;1.80;;;;;;;7.26;78.14;97046.73;108908;1256;60490;-80
2023/03/26 02:54:33;;;;;;;2.80;1.40;;;;;;;7.26;78.23;97046.53;108826;1255;72932;-78
2023/03/26 02:56:59;;;;;;;4.80;2.20;;;;;;;7.27;78.30;97043.94;109219;1256;59767;-80
2023/03/26 02:59:27;;;;;;;3.10;2.50;;;;;;;7.26;78.24;97043.13;109289;1255;60165;-79
2023/03/26 03:01:53;;;;;;;3.90;1.90;;;;;;;7.26;78.18;97031.53;109318;1254;59746;-80
2023/03/26 03:04:20;;;;;;;3.40;2.40;;;;;;;7.25;78.13;97027.14;109322;1254;59705;-79
2023/03/26 03:06:51;;;;;;;3.10;2.30;;;;;;;7.27;78.16;97025.14;109284;1255;71675;-79
2023/03/26 03:09:18;;;;;;;3.10;1.90;;;;;;;7.27;77.98;97027.61;109303;1254;59677;-80
2023/03/26 03:11:45;;;;;;;5.20;2.50;;;;;;;7.29;77.76;97031.58;109335;1254;60212;-78
2023/03/26 03:14:11;;;;;;;3.30;2.00;;;;;;;7.32;77.87;97032.03;109320;1257;60002;-78
2023/03/26 03:16:38;;;;;;;3.10;2.60;;;;;;;7.33;77.77;97027.92;109314;1254;59647;-78
2023/03/26 03:19:04;;;;;;;3.40;1.80;;;;;;;7.35;77.58;97024.05;109214;1256;60086;-78
2023/03/26 03:21:31;;;;;;;1.90;1.20;;;;;;;7.35;77.65;97019.30;109128;1256;59992;-78
2023/03/26 03:23:57;;;;;;;2.30;1.30;;;;;;;7.35;77.46;97017.46;109121;1256;59831;-79
2023/03/26 03:26:28;;;;;;;5.40;2.90;;;;;;;7.34;77.49;97013.95;109128;1256;60050;-80
2023/03/26 03:28:56;;;;;;;3.70;1.50;;;;;;;7.33;77.46;97012.02;109103;1256;70433;-78
2023/03/26 03:31:27;;;;;;;3.50;1.80;;;;;;;7.34;77.24;97012.73;109122;1255;71774;-80
2023/03/26 03:33:53;;;;;;;4.00;1.70;;;;;;;7.33;77.25;97011.04;109084;1257;59677;-78
2023/03/26 03:36:26;;;;;;;3.60;1.90;;;;;;;7.32;77.39;97014.02;109007;1255;59546;-77
2023/03/26 03:38:53;;;;;;;5.20;2.60;;;;;;;7.31;77.36;97020.39;109013;1256;75912;-78
2023/03/26 03:41:19;;;;;;;5.40;3.30;;;;;;;7.30;77.20;97030.60;108933;1255;59794;-78
2023/03/26 03:43:45;;;;;;;3.50;1.90;;;;;;;7.29;77.47;97026.29;108912;1256;59945;-78
2023/03/26 03:46:12;;;;;;;2.10;1.40;;;;;;;7.27;77.42;97026.32;108930;1256;60454;-80
2023/03/26 03:48:38;;;;;;;2.50;1.70;;;;;;;7.26;77.40;97027.98;108982;1254;59908;-78
2023/03/26 03:51:05;;;;;;;5.70;2.30;;;;;;;7.26;77.61;97024.38;108983;1255;60104;-80
2023/03/26 03:53:35;;;;;;;2.10;1.30;;;;;;;7.25;77.67;97020.12;108951;1256;60729;-80
2023/03/26 03:56:03;;;;;;;7.60;3.60;;;;;;;7.27;77.71;97020.82;108921;1254;71744;-78
2023/03/26 03:58:29;;;;;;;5.30;2.90;;;;;;;7.30;77.78;97017.77;109076;1254;60241;-79
2023/03/26 04:00:59;;;;;;;7.10;3.20;;;;;;;7.32;77.73;97012.04;109064;1257;60908;-80
2023/03/26 04:03:26;;;;;;;3.40;1.80;;;;;;;7.34;77.73;97016.16;109085;1254;76549;-79
2023/03/26 04:05:53;;;;;;;4.30;2.50;;;;;;;7.35;77.97;97022.64;109064;1254;70929;-79
2023/03/26 04:08:21;;;;;;;6.60;3.30;;;;;;;7.35;77.83;97022.42;109075;1255;72515;-77
2023/03/26 04:10:47;;;;;;;2.90;1.60;;;;;;;7.35;77.89;97024.74;109041;1256;60101;-78
2023/03/26 04:13:14;;;;;;;3.50;2.30;;;;;;;7.35;78.11;97020.48;109093;1254;60313;-80
2023/03/26 04:15:40;;;;;;;3.50;1.90;;;;;;;7.33;78.19;97017.89;108920;1254;60469;-78
2023/03/26 04:18:09;;;;;;;5.90;2.60;;;;;;;7.33;78.13;97018.92;108939;1257;60424;-77
2023/03/26 04:20:37;;;;;;;6.20;2.90;;;;;;;7.34;78.22;97017.08;108891;1256;72040;-80
2023/03/26 04:23:04;;;;;;;5.30;2.40;;;;;;;7.32;78.22;97015.21;108900;1256;60005;-78
2023/03/26 04:25:32;;;;;;;2.90;1.90;;;;;;;7.32;78.31;97021.95;108910;1255;60036;-79
2023/03/26 04:28:00;;;;;;;4.60;1.60;;;;;;;7.30;78.24;97024.02;108994;1262;75292;-80
2023/03/26 04:30:26;;;;;;;4.10;2.00;;;;;;;7.31;78.41;97023.80;109092;1256;71437;-80
2023/03/26 04:32:57;;;;;;;4.80;2.00;;;;;;;7.31;78.14;97019.80;109118;1256;60043;-78
2023/03/26 04:35:24;;;;;;;6.00;2.20;;;;;;;7.30;78.24;97016.90;109051;1256;59897;-80
2023/03/26 04:37:51;;;;;;;4.00;2.00;;;;;;;7.29;78.38;97013.69;108909;1256;60370;-80
2023/03/26 04:40:19;;;;;;;4.70;2.20;;;;;;;7.29;78.05;97013.15;109121;1256;75547;-80
2023/03/26 04:42:45;;;;;;;4.70;2.30;;;;;;;7.30;78.02;97013.99;109122;1256;70555;-78
2023/03/26 04:45:13;;;;;;;5.50;2.10;;;;;;;7.30;78.17;97014.16;109031;1256;59894;-78
2023/03/26 04:47:40;;;;;;;5.30;3.30;;;;;;;7.29;78.31;97014.00;108872;1255;59944;-78
2023/03/26 04:50:08;;;;;;;4.30;2.40;;;;;;;7.32;78.07;97016.51;108913;1256;60219;-77
2023/03/26 04:52:34;;;;;;;7.30;3.60;;;;;;;7.31;78.38;97014.73;108921;1255;75366;-78
2023/03/26 04:55:00;;;;;;;5.40;3.10;;;;;;;7.31;78.23;97014.80;108849;1256;60228;-79
2023/03/26 04:57:36;;;;;;;8.10;2.20;;;;;;;7.32;78.17;97016.50;109017;1254;70753;-80
2023/03/26 05:00:10;;;;;;;3.30;1.60;;;;;;;7.34;77.99;97020.16;108920;1254;60460;-77
2023/03/26 05:02:38;;;;;;;4.70;1.60;;;;;;;7.39;78.03;97025.67;109085;1257;60156;-80
2023/03/26 05:05:05;;;;;;;2.90;1.70;;;;;;;7.43;78.06;97024.08;109096;1257;74514;-78
2023/03/26 05:07:32;;;;;;;4.30;2.10;;;;;;;7.47;78.04;97026.04;109036;1254;72057;-79
2023/03/26 05:10:00;;;;;;;6.90;2.10;;;;;;;7.51;78.06;97026.30;109044;1254;72517;-79
2023/03/26 05:12:27;;;;;;;5.00;1.90;;;;;;;7.56;78.11;97026.55;109019;1256;59831;-80
2023/03/26 05:14:53;;;;;;;2.60;1.70;;;;;;;7.58;77.90;97023.39;109102;1254;60308;-78
2023/03/26 05:17:21;;;;;;;9.70;2.40;;;;;;;7.60;77.96;97022.40;109073;1258;60223;-80
2023/03/26 05:19:47;;;;;;;6.60;2.20;;;;;;;7.67;77.74;97028.38;109004;1256;69751;-80
2023/03/26 05:22:14;;;;;;;8.60;3.20;;;;;;;7.68;77.80;97028.91;108891;1256;60236;-80
2023/03/26 05:24:40;;;;;;;2.90;1.50;;;;;;;7.70;77.45;97028.30;108886;1256;60157;-78
2023/03/26 05:27:07;;;;;;;4.50;2.00;;;;;;;7.75;77.39;97023.55;108905;1256;59784;-80
2023/03/26 05:29:33;;;;;;;3.10;1.80;;;;;;;7.77;77.21;97025.95;108900;1256;59942;-78
2023/03/26 05:31:59;;;;;;;5.60;2.00;;;;;;;7.79;76.94;97026.80;108939;1256;59909;-78
2023/03/26 05:34:26;;;;;;;4.60;2.00;;;;;;;7.81;77.13;97024.25;108869;1260;60423;-78
2023/03/26 05:36:53;;;;;;;6.00;1.90;;;;;;;7.83;76.77;97024.11;108881;1256;60216;-78
2023/03/26 05:39:24;;;;;;;4.10;2.10;;;;;;;7.84;76.78;97019.77;108952;1256;61081;-80
2023/03/26 05:41:51;;;;;;;3.70;1.90;;;;;;;7.85;76.86;97014.59;108940;1256;74610;-80
2023/03/26 05:44:18;;;;;;;4.20;2.00;;;;;;;7.89;76.58;97015.20;108911;1256;69825;-78
2023/03/26 05:46:44;;;;;;;5.50;2.00;;;;;;;7.89;76.54;97016.66;108944;1256;59816;-77
2023/03/26 05:49:11;;;;;;;5.70;2.50;;;;;;;7.94;76.43;97013.80;108910;1258;59688;-78
2023/03/26 05:51:37;;;;;;;3.30;1.90;;;;;;;8.00;76.33;97012.23;108894;1256;59828;-78
2023/03/26 05:54:04;;;;;;;3.50;2.20;;;;;;;8.04;76.37;97008.67;108909;1256;60470;-78
2023/03/26 05:56:30;;;;;;;5.20;2.30;;;;;;;8.08;76.28;97008.45;108891;1258;60371;-80
2023/03/26 05:58:57;;;;;;;6.00;2.20;;;;;;;8.07;76.07;97007.30;108864;1258;59849;-79
2023/03/26 06:01:24;;;;;;;6.40;2.60;;;;;;;8.05;76.01;97009.15;108864;1259;59820;-78
2023/03/26 06:03:51;;;;;;;5.20;2.20;;;;;;;8.01;75.96;97014.41;108866;1256;60463;-80
2023/03/26 06:06:19;;;;;;;8.50;3.40;;;;;;;8.00;76.04;97011.56;108879;1258;75109;-80
2023/03/26 06:08:47;;;;;;;4.30;2.20;;;;;;;8.05;75.67;97016.49;108883;1257;70662;-80
2023/03/26 06:11:14;;;;;;;8.70;2.50;;;;;;;8.10;75.51;97013.14;108867;1258;71718;-80
2023/03/26 06:13:41;;;;;;;9.10;3.60;;;;;;;8.23;75.13;97012.23;108848;1259;60473;-80
2023/03/26 06:16:08;;;;;;;6.10;2.10;;;;;;;8.31;74.81;97014.77;108858;1257;60266;-80
2023/03/26 06:18:35;;;;;;;12.10;2.60;;;;;;;8.45;73.94;97019.70;108941;1256;75311;-80
2023/03/26 06:21:02;;;;;;;3.30;1.60;;;;;;;8.61;73.47;97015.38;108899;1256;59950;-80
2023/03/26 06:23:29;;;;;;;4.50;1.60;;;;;;;8.71;73.56;97021.35;108917;1256;71388;-78
2023/03/26 06:25:55;;;;;;;8.60;2.30;;;;;;;8.90;72.49;97022.27;108868;1256;60152;-78
2023/03/26 06:28:22;;;;;;;4.50;2.40;;;;;;;8.94;71.74;97027.00;108910;1256;59726;-80
2023/03/26 06:30:48;;;;;;;7.60;2.30;;;;;;;9.04;71.22;97027.08;108927;1256;75878;-78
2023/03/26 06:33:15;;;;;;;5.70;1.90;;;;;;;9.11;70.72;97031.94;108912;1255;70242;-79
2023/03/26 06:35:44;;;;;;;4.30;2.10;;;;;;;9.21;70.56;97038.88;108754;1258;72789;-78
2023/03/26 06:38:11;;;;;;;4.00;2.10;;;;;;;9.31;70.17;97036.00;108911;1256;60335;-78
2023/03/26 06:40:37;;;;;;;7.20;1.90;;;;;;;9.44;69.52;97038.99;108923;1255;59831;-78
2023/03/26 06:43:04;;;;;;;4.00;2.10;;;;;;;9.67;69.73;97039.30;108887;1256;59958;-78
2023/03/26 06:45:31;;;;;;;5.10;1.60;;;;;;;9.99;68.31;97042.08;108909;1256;60414;-80
2023/03/26 06:47:58;;;;;;;7.30;2.30;;;;;;;10.50;68.55;97044.84;108917;1255;72538;-80
2023/03/26 06:50:26;;;;;;;8.80;2.10;;;;;;;10.76;66.82;97044.73;108897;1255;60433;-80
2023/03/26 06:52:53;;;;;;;6.10;1.90;;;;;;;10.66;64.88;97048.58;108783;1255;59947;-78
2023/03/26 06:55:19;;;;;;;3.30;1.50;;;;;;;10.58;63.62;97043.27;108971;1255;73692;-80
2023/03/26 06:57:50;;;;;;;3.80;1.60;;;;;;;10.30;64.79;97042.98;108897;1254;70412;-77
2023/03/26 07:00:16;;;;;;;4.80;2.30;;;;;;;10.37;65.49;97039.05;109087;1254;71744;-80
2023/03/26 07:02:43;;;;;;;3.50;1.50;;;;;;;10.54;65.11;97040.33;109061;1259;59874;-79
2023/03/26 07:05:09;;;;;;;2.90;1.30;;;;;;;10.64;64.70;97040.11;109074;1254;59857;-77
2023/03/26 07:07:37;;;;;;;4.70;2.40;;;;;;;11.14;63.89;97038.30;109092;1254;60315;-77
2023/03/26 07:10:04;;;;;;;17.50;10.70;;;;;;;11.44;62.36;97041.64;108962;1255;71258;-80
2023/03/26 07:12:31;;;;;;;9.90;5.70;;;;;;;11.26;62.92;97044.77;109069;1254;72372;-78
2023/03/26 07:14:59;;;;;;;5.20;2.30;;;;;;;11.38;62.09;97040.94;108893;1254;59901;-77
2023/03/26 07:17:25;;;;;;;3.30;1.70;;;;;;;11.77;60.95;97041.96;108950;1254;61537;-78
2023/03/26 07:19:53;;;;;;;3.90;1.70;;;;;;;12.41;60.55;97040.06;108964;1257;60455;-77
2023/03/26 07:22:23;;;;;;;2.60;1.50;;;;;;;13.18;59.74;97032.42;108899;1256;72335;-78
2023/03/26 07:24:49;;;;;;;2.80;1.30;;;;;;;13.99;58.84;97032.45;108912;1256;73492;-78
2023/03/26 07:27:48;;;;;;;3.00;1.70;;;;;;;14.79;56.06;97032.37;108898;1260;60452;-78
2023/03/26 07:30:23;;;;;;;3.00;1.30;;;;;;;15.48;54.00;97019.44;108808;1256;60583;-78
2023/03/26 07:33:05;;;;;;;4.50;2.70;;;;;;;16.19;54.65;97023.06;108930;1257;75124;-78
2023/03/26 07:35:52;;;;;;;5.30;3.30;;;;;;;16.82;53.02;97025.42;108904;1256;71996;-78
2023/03/26 07:38:30;;;;;;;5.00;1.50;;;;;;;17.38;51.12;97024.59;108826;1255;70733;-78
2023/03/26 07:41:08;;;;;;;3.70;1.50;;;;;;;18.09;51.73;97025.58;108932;1256;60727;-78
2023/03/26 07:43:47;;;;;;;;;;;;;;;18.51;46.43;97025.09;108932;1256;61375;-79
2023/03/26 07:46:14;;;;;;;2.20;1.10;;;;;;;18.61;45.51;97022.64;108933;1260;76175;-78
2023/03/26 07:48:42;;;;;;;2.80;1.20;;;;;;;19.04;44.39;97025.08;108888;1257;71530;-81
2023/03/26 07:51:10;;;;;;;2.40;1.10;;;;;;;19.37;42.97;97018.96;108897;1257;73829;-80
2023/03/26 07:53:36;;;;;;;3.70;1.30;;;;;;;19.35;42.12;97015.39;108899;1256;60375;-81
2023/03/26 07:56:27;;;;;;;4.40;1.40;;;;;;;19.24;40.27;97007.45;108937;1254;60301;-78
2023/03/26 07:59:26;;;;;;;3.30;1.80;;;;;;;19.28;40.57;97007.06;109074;1254;74166;-78
2023/03/26 08:02:15;;;;;;;1.60;1.30;;;;;;;19.33;39.40;97005.14;108949;1259;71389;-80
2023/03/26 08:04:47;;;;;;;;;;;;;;;19.70;39.21;97003.83;109078;1254;72306;-79
2023/03/26 08:07:36;;;;;;;2.80;1.50;;;;;;;19.77;36.60;96999.52;109072;1254;60099;-80
2023/03/26 08:10:11;;;;;;;3.90;1.50;;;;;;;19.63;37.55;96999.40;109058;1254;59925;-78
2023/03/26 08:13:02;;;;;;;2.70;1.00;;;;;;;19.98;36.97;97002.89;109051;1254;75572;-79
2023/03/26 08:15:38;;;;;;;3.40;1.10;;;;;;;20.50;36.01;97005.35;109049;1254;72726;-78
2023/03/26 08:18:26;;;;;;;1.50;1.10;;;;;;;20.69;35.22;97001.41;108940;1254;72658;-79
2023/03/26 08:21:07;;;;;;;2.80;1.10;;;;;;;21.12;34.47;97001.88;108906;1257;59846;-79
2023/03/26 08:23:44;;;;;;;5.00;1.40;;;;;;;21.45;32.89;96997.30;108896;1256;60467;-81
2023/03/26 08:26:31;;;;;;;2.70;1.50;;;;;;;21.13;32.57;96994.80;108907;1256;75164;-79
2023/03/26 08:29:02;;;;;;;4.10;1.30;;;;;;;21.32;33.19;96998.85;109022;1257;70583;-79
2023/03/26 08:31:32;;;;;;;4.20;1.20;;;;;;;21.72;33.37;96993.44;109013;1257;71804;-81
2023/03/26 08:33:58;;;;;;;2.00;1.20;;;;;;;22.58;32.19;96992.29;108962;1255;60106;-81
2023/03/26 08:36:26;;;;;;;1.70;1.00;;;;;;;22.59;31.73;96995.06;108993;1257;59867;-79
2023/03/26 08:38:53;;;;;;;3.10;2.00;;;;;;;23.04;31.46;96998.38;108958;1258;76804;-81
2023/03/26 08:41:54;;;;;;;7.50;5.30;;;;;;;23.48;30.79;96996.30;109004;1255;71394;-81
2023/03/26 08:45:01;;;;;;;4.60;3.30;;;;;;;23.09;29.92;96988.95;108813;1256;73702;-81
2023/03/26 08:47:42;;;;;;;3.70;2.40;;;;;;;21.02;32.58;96983.09;108968;1254;60134;-81
2023/03/26 08:50:23;;;;;;;11.20;6.50;;;;;;;21.85;31.53;96986.78;108912;1255;60168;-81
2023/03/26 08:53:02;;;;;;;2.70;1.70;;;;;;;22.79;30.29;96994.34;109005;1259;76777;-81
2023/03/26 08:55:47;;;;;;;3.40;1.40;;;;;;;23.22;28.43;96993.64;108911;1256;71554;-79
2023/03/26 08:58:23;;;;;;;2.60;1.20;;;;;;;22.40;29.13;96987.95;109001;1254;73110;-79
2023/03/26 09:01:08;;;;;;;5.30;1.30;;;;;;;20.77;31.49;96985.39;109062;1254;59839;-81
2023/03/26 09:03:44;;;;;;;5.10;1.30;;;;;;;19.54;33.45;96985.08;109059;1254;60262;-80
2023/03/26 09:06:13;;;;;;;4.40;2.00;;;;;;;18.50;34.87;96984.16;109074;1254;75713;-78
2023/03/26 09:09:34;;;;;;;2.30;1.40;;;;;;;17.57;36.02;96984.58;109084;1254;70137;-80
2023/03/26 09:12:07;;;;;;;3.50;1.40;;;;;;;16.64;37.58;96982.17;108451;1263;72582;-78
2023/03/26 09:14:52;;;;;;;5.60;2.20;;;;;;;15.72;39.11;96979.09;108987;1254;59834;-80
2023/03/26 09:18:10;;;;;;;4.60;1.30;;;;;;;14.97;40.75;96982.50;109064;1254;60935;-80
2023/03/26 09:21:15;;;;;;;4.60;2.60;;;;;;;13.83;43.29;96981.52;108529;1257;76178;-78
2023/03/26 09:24:09;;;;;;;7.40;3.30;;;;;;;13.41;43.77;96977.90;108818;1257;70942;-80
2023/03/26 09:26:43;;;;;;;2.90;1.50;;;;;;;13.16;44.40;96982.83;108843;1257;70914;-78
2023/03/26 09:29:20;;;;;;;2.60;1.80;;;;;;;12.93;45.52;96980.01;108857;1257;60611;-78
2023/03/26 09:32:02;;;;;;;4.00;1.40;;;;;;;12.76;46.39;96978.54;108859;1257;61403;-79
2023/03/26 09:34:50;;;;;;;3.50;1.50;;;;;;;12.65;46.57;96983.09;108799;1257;74783;-78
2023/03/26 09:37:29;;;;;;;4.00;1.50;;;;;;;12.68;47.24;96978.82;108841;1257;70976;-78
2023/03/26 09:40:16;;;;;;;3.30;2.00;;;;;;;12.79;47.40;96979.27;108834;1257;71183;-78
2023/03/26 09:42:52;;;;;;;4.00;2.20;;;;;;;12.83;47.92;96973.00;108827;1257;60138;-78
2023/03/26 09:45:30;;;;;;;3.60;1.40;;;;;;;12.90;47.66;96977.55;108841;1257;59868;-78
2023/03/26 09:48:30;;;;;;;5.20;1.70;;;;;;;12.88;47.98;96973.48;108813;1257;74720;-78
2023/03/26 09:51:17;;;;;;;3.60;2.00;;;;;;;12.73;48.67;96978.86;108766;1257;69642;-79
2023/03/26 09:53:57;;;;;;;3.90;2.40;;;;;;;12.53;48.91;96982.04;108858;1256;72895;-80
2023/03/26 09:56:48;;;;;;;4.60;1.70;;;;;;;12.47;49.48;96972.93;108899;1257;60516;-78
2023/03/26 09:59:17;;;;;;;12.00;2.90;;;;;;;12.57;49.25;96974.96;109097;1254;60105;-79
2023/03/26 10:01:56;;;;;;;3.50;1.40;;;;;;;12.71;49.40;96966.63;109012;1254;75933;-78
2023/03/26 10:04:50;;;;;;;4.40;1.70;;;;;;;12.70;49.01;96964.58;108885;1254;70957;-80
2023/03/26 10:07:38;;;;;;;4.40;1.90;;;;;;;12.72;49.26;96963.77;109040;1254;71417;-80
2023/03/26 10:10:43;;;;;;;4.60;2.30;;;;;;;12.73;48.95;96958.29;109042;1254;59825;-80
2023/03/26 10:13:09;;;;;;;5.30;1.80;;;;;;;12.61;49.09;96960.55;109072;1254;59826;-80
2023/03/26 10:16:02;;;;;;;5.10;1.70;;;;;;;12.48;49.87;96962.25;109038;1254;75568;-80
2023/03/26 10:18:57;;;;;;;7.20;2.10;;;;;;;12.34;49.43;96960.76;109061;1254;71104;-79
2023/03/26 10:21:47;;;;;;;4.60;1.50;;;;;;;12.32;49.45;96955.52;108887;1256;72572;-80
2023/03/26 10:24:32;;;;;;;2.40;1.40;;;;;;;12.28;49.63;96952.02;108906;1256;60362;-78
2023/03/26 10:27:06;;;;;;;3.60;1.60;;;;;;;12.33;49.85;96947.21;109011;1257;60109;-78
2023/03/26 10:29:40;;;;;;;4.20;2.30;;;;;;;12.43;49.93;96940.39;108904;1256;75672;-79
2023/03/26 10:32:21;;;;;;;4.30;2.20;;;;;;;12.42;50.07;96938.77;108934;1255;71053;-79
2023/03/26 10:34:57;;;;;;;6.30;5.00;;;;;;;12.30;49.93;96936.44;108879;1256;72455;-79
2023/03/26 10:37:28;;;;;;;4.90;2.70;;;;;;;12.18;50.44;96934.94;108884;1255;59801;-78
2023/03/26 10:40:04;;;;;;;5.50;3.20;;;;;;;12.20;50.22;96927.45;108920;1256;60153;-79
2023/03/26 10:42:37;;;;;;;4.00;2.30;;;;;;;12.33;50.51;96926.84;108914;1256;76515;-78
2023/03/26 10:45:22;;;;;;;3.80;1.40;;;;;;;12.64;50.68;96927.88;108922;1255;70276;-80
2023/03/26 10:48:15;;;;;;;3.60;1.30;;;;;;;13.05;49.82;96917.05;108913;1255;72586;-80
2023/03/26 10:50:52;;;;;;;1.50;1.00;;;;;;;13.30;48.77;96921.41;108926;1255;59917;-79
2023/03/26 10:53:50;;;;;;;1.90;1.10;;;;;;;13.33;47.34;96914.34;108962;1255;59808;-78
2023/03/26 10:56:39;;;;;;;2.70;1.30;;;;;;;13.57;48.05;96916.73;108919;1254;73511;-79
2023/03/26 10:59:09;;;;;;;3.50;1.60;;;;;;;13.77;47.76;96913.77;109082;1254;70492;-79
2023/03/26 11:01:57;;;;;;;4.40;2.40;;;;;;;13.74;47.39;96916.90;108896;1254;72317;-79
2023/03/26 11:04:44;;;;;;;4.80;2.10;;;;;;;13.40;47.36;96915.86;109072;1254;59887;-78
2023/03/26 11:07:18;;;;;;;3.60;1.80;;;;;;;13.06;47.92;96914.55;109051;1254;60170;-78
2023/03/26 11:09:57;;;;;;;5.00;1.70;;;;;;;12.88;48.61;96918.09;109081;1254;75492;-80
2023/03/26 11:12:39;;;;;;;5.20;3.10;;;;;;;12.80;49.06;96923.83;108902;1254;69724;-80
2023/03/26 11:15:27;;;;;;;15.00;5.10;;;;;;;12.88;49.13;96913.03;109083;1254;72232;-78
2023/03/26 11:18:03;;;;;;;;;;;;;;;13.12;48.98;96910.16;108944;1254;59895;-77
2023/03/26 11:20:58;;;;;;;4.10;2.20;;;;;;;13.07;48.82;96907.96;108867;1257;60272;-77
2023/03/26 11:23:46;;;;;;;3.80;2.20;;;;;;;12.97;49.08;96904.83;108771;1257;75972;-77
2023/03/26 11:26:17;;;;;;;4.10;3.40;;;;;;;12.89;48.64;96907.83;108849;1257;71381;-78
2023/03/26 11:28:58;;;;;;;3.60;1.90;;;;;;;12.78;48.56;96904.13;108804;1256;71392;-80
2023/03/26 11:31:52;;;;;;;3.40;2.30;;;;;;;12.78;48.93;96902.58;108801;1257;60530;-78
2023/03/26 11:34:22;;;;;;;3.50;1.90;;;;;;;12.79;48.73;96896.89;108731;1258;59920;-77
2023/03/26 11:36:50;;;;;;;3.40;1.70;;;;;;;12.61;48.98;96891.05;108783;1257;76598;-79
2023/03/26 11:39:25;;;;;;;4.30;2.50;;;;;;;12.47;49.68;96892.57;108848;1257;70606;-80
2023/03/26 11:41:58;;;;;;;3.10;1.60;;;;;;;12.32;49.88;96899.50;108818;1257;73787;-80
2023/03/26 11:44:26;;;;;;;3.30;2.10;;;;;;;12.15;50.17;96900.20;108679;1257;59838;-80
2023/03/26 11:46:57;;;;;;;3.20;1.80;;;;;;;12.22;50.59;96892.95;108800;1257;59867;-80
2023/03/26 11:49:25;;;;;;;1.80;1.20;;;;;;;12.42;49.96;96900.98;108789;1257;75301;-80
2023/03/26 11:51:51;;;;;;;3.30;1.80;;;;;;;12.45;49.82;96901.02;108725;1257;71634;-78
2023/03/26 11:54:19;;;;;;;5.30;3.50;;;;;;;12.62;49.83;96904.59;108861;1256;60400;-78
2023/03/26 11:56:48;;;;;;;4.60;2.20;;;;;;;12.53;49.84;96898.96;108981;1254;60410;-81
2023/03/26 11:59:40;;;;;;;6.30;4.20;;;;;;;12.31;50.21;96901.41;108896;1254;60318;-80